createdAt,value
2023-04-11T00:00:12.169Z,8.70
2023-04-11T00:02:39.647Z,8.70
2023-04-11T00:05:07.715Z,8.80
2023-04-11T00:07:35.449Z,8.70
2023-04-11T00:10:03.057Z,8.60
2023-04-11T00:12:30.505Z,8.60
2023-04-11T00:14:57.782Z,8.60
2023-04-11T00:17:31.375Z,8.60
2023-04-11T00:20:01.771Z,8.60
2023-04-11T00:22:30.635Z,8.60
2023-04-11T00:24:57.971Z,8.50
2023-04-11T00:27:25.408Z,8.50
2023-04-11T00:29:54.734Z,8.50
2023-04-11T00:32:22.049Z,8.50
2023-04-11T00:34:49.301Z,8.50
2023-04-11T00:37:17.808Z,8.50
2023-04-11T00:39:45.313Z,8.40
2023-04-11T00:42:12.614Z,8.40
2023-04-11T00:44:40.276Z,8.40
2023-04-11T00:47:07.812Z,8.40
2023-04-11T00:49:36.010Z,8.40
2023-04-11T00:52:04.306Z,8.30
2023-04-11T00:54:31.694Z,8.30
2023-04-11T00:57:01.042Z,8.30
2023-04-11T00:59:28.910Z,8.30
2023-04-11T01:01:56.593Z,8.30
2023-04-11T01:04:24.442Z,8.30
2023-04-11T01:06:54.416Z,8.30
2023-04-11T01:09:23.339Z,8.30
2023-04-11T01:11:51.233Z,8.20
2023-04-11T01:14:19.050Z,8.20
2023-04-11T01:16:50.788Z,8.20
2023-04-11T01:19:22.168Z,8.20
2023-04-11T01:21:50.212Z,8.20
2023-04-11T01:24:17.664Z,8.20
2023-04-11T01:26:45.092Z,8.20
2023-04-11T01:29:12.366Z,8.20
2023-04-11T01:31:39.673Z,8.20
2023-04-11T01:34:07.779Z,8.20
2023-04-11T01:36:35.243Z,8.10
2023-04-11T01:39:02.486Z,8.10
2023-04-11T01:41:30.120Z,8.10
2023-04-11T01:43:57.350Z,8.00
2023-04-11T01:46:25.130Z,8.00
2023-04-11T01:48:54.861Z,8.10
2023-04-11T01:51:22.578Z,8.00
2023-04-11T01:53:49.904Z,8.00
2023-04-11T01:56:17.237Z,8.10
2023-04-11T01:58:44.569Z,8.00
2023-04-11T02:01:14.351Z,8.00
2023-04-11T02:03:41.858Z,8.00
2023-04-11T02:06:09.242Z,8.00
2023-04-11T02:08:36.508Z,7.90
2023-04-11T02:11:03.864Z,7.90
2023-04-11T02:13:31.342Z,7.90
2023-04-11T02:16:04.333Z,7.90
2023-04-11T02:18:31.689Z,7.90
2023-04-11T02:20:58.949Z,7.90
2023-04-11T02:23:26.195Z,7.90
2023-04-11T02:25:53.494Z,7.90
2023-04-11T02:28:21.077Z,7.90
2023-04-11T02:30:48.967Z,7.90
2023-04-11T02:33:16.301Z,7.90
2023-04-11T02:35:43.564Z,7.90
2023-04-11T02:38:10.802Z,7.80
2023-04-11T02:40:38.092Z,7.80
2023-04-11T02:43:05.533Z,7.70
2023-04-11T02:45:32.865Z,7.80
2023-04-11T02:48:00.425Z,7.70
2023-04-11T02:50:27.704Z,7.70
2023-04-11T02:52:55.177Z,7.70
2023-04-11T02:55:25.450Z,7.70
2023-04-11T02:57:52.745Z,7.70
2023-04-11T03:00:20.251Z,7.60
2023-04-11T03:02:49.136Z,7.60
2023-04-11T03:05:16.729Z,7.70
2023-04-11T03:07:44.373Z,7.70
2023-04-11T03:10:11.649Z,7.60
2023-04-11T03:12:38.978Z,7.60
2023-04-11T03:15:06.581Z,7.60
2023-04-11T03:17:34.304Z,7.60
2023-04-11T03:20:01.669Z,7.60
2023-04-11T03:22:29.026Z,7.60
2023-04-11T03:24:56.340Z,7.60
2023-04-11T03:27:23.584Z,7.60
2023-04-11T03:29:50.841Z,7.50
2023-04-11T03:32:18.152Z,7.60
2023-04-11T03:34:45.458Z,7.50
2023-04-11T03:37:12.811Z,7.60
2023-04-11T03:39:40.152Z,7.50
2023-04-11T03:42:07.484Z,7.50
2023-04-11T03:44:34.774Z,7.50
2023-04-11T03:47:02.149Z,7.50
2023-04-11T03:49:29.426Z,7.50
2023-04-11T03:51:56.664Z,7.40
2023-04-11T03:54:23.877Z,7.40
2023-04-11T03:56:51.201Z,7.40
2023-04-11T03:59:18.453Z,7.40
2023-04-11T04:01:46.147Z,7.40
2023-04-11T04:04:13.563Z,7.40
2023-04-11T04:06:41.024Z,7.30
2023-04-11T04:09:08.298Z,7.40
2023-04-11T04:11:35.536Z,7.30
2023-04-11T04:14:02.830Z,7.30
2023-04-11T04:16:30.262Z,7.40
2023-04-11T04:18:57.539Z,7.30
2023-04-11T04:21:26.804Z,7.40
2023-04-11T04:23:55.117Z,7.30
2023-04-11T04:26:25.126Z,7.30
2023-04-11T04:28:54.080Z,7.30
2023-04-11T04:31:25.596Z,7.30
2023-04-11T04:33:53.112Z,7.30
2023-04-11T04:36:20.448Z,7.30
2023-04-11T04:38:47.971Z,7.30
2023-04-11T04:41:15.735Z,7.20
2023-04-11T04:43:43.865Z,7.20
2023-04-11T04:46:11.474Z,7.20
2023-04-11T04:48:38.810Z,7.20
2023-04-11T04:51:06.994Z,7.20
2023-04-11T04:53:34.956Z,7.20
2023-04-11T04:56:02.481Z,7.20
2023-04-11T04:58:29.798Z,7.30
2023-04-11T05:00:57.345Z,7.30
2023-04-11T05:03:24.900Z,7.20
2023-04-11T05:09:59.739Z,7.20
2023-04-11T05:12:27.284Z,7.20
2023-04-11T05:14:56.627Z,7.20
2023-04-11T05:17:25.316Z,7.10
2023-04-11T05:19:52.983Z,7.20
2023-04-11T05:26:27.696Z,7.20
2023-04-11T05:28:55.251Z,7.10
2023-04-11T05:31:22.625Z,7.10
2023-04-11T05:33:50.050Z,7.10
2023-04-11T05:36:17.468Z,7.10
2023-04-11T05:42:58.748Z,7.20
2023-04-11T05:45:26.100Z,7.20
2023-04-11T05:47:53.394Z,7.20
2023-04-11T05:50:20.941Z,7.20
2023-04-11T05:52:48.227Z,7.10
2023-04-11T05:55:15.811Z,7.10
2023-04-11T05:57:43.070Z,7.10
2023-04-11T06:00:14.418Z,7.20
2023-04-11T06:02:42.748Z,7.10
2023-04-11T06:05:15.773Z,7.20
2023-04-11T06:07:43.393Z,7.20
2023-04-11T06:10:10.958Z,7.20
2023-04-11T06:12:38.203Z,7.20
2023-04-11T06:15:05.972Z,7.20
2023-04-11T06:17:33.265Z,7.20
2023-04-11T06:20:02.425Z,7.30
2023-04-11T06:22:31.207Z,7.30
2023-04-11T06:24:58.463Z,7.40
2023-04-11T06:27:26.605Z,7.40
2023-04-11T06:29:53.849Z,7.40
2023-04-11T06:32:21.991Z,7.50
2023-04-11T06:34:49.284Z,7.50
2023-04-11T06:37:16.696Z,7.50
2023-04-11T06:39:44.011Z,7.60
2023-04-11T06:42:11.253Z,7.60
2023-04-11T06:44:38.523Z,7.60
2023-04-11T06:47:05.995Z,7.70
2023-04-11T06:49:33.292Z,7.70
2023-04-11T06:52:00.600Z,7.70
2023-04-11T06:54:27.911Z,7.70
2023-04-11T06:56:57.209Z,7.80
2023-04-11T06:59:24.891Z,7.80
2023-04-11T07:01:52.405Z,7.80
2023-04-11T07:04:19.876Z,7.80
2023-04-11T07:06:47.946Z,7.90
2023-04-11T07:09:15.225Z,7.90
2023-04-11T07:11:42.530Z,7.90
2023-04-11T07:14:10.111Z,8.00
2023-04-11T07:16:37.547Z,8.00
2023-04-11T07:19:04.913Z,8.00
2023-04-11T07:21:32.461Z,8.10
2023-04-11T07:24:00.838Z,8.10
2023-04-11T07:26:32.491Z,8.20
2023-04-11T07:29:00.970Z,8.30
2023-04-11T07:31:28.348Z,8.40
2023-04-11T07:33:56.005Z,8.40
2023-04-11T07:36:23.547Z,8.40
2023-04-11T07:38:52.332Z,8.40
2023-04-11T07:41:19.643Z,8.60
2023-04-11T07:43:47.140Z,8.60
2023-04-11T07:46:15.215Z,8.60
2023-04-11T07:48:43.149Z,8.70
2023-04-11T07:51:10.449Z,8.70
2023-04-11T07:53:38.571Z,8.80
2023-04-11T07:56:06.168Z,8.90
2023-04-11T07:58:33.482Z,9.00
2023-04-11T08:01:02.613Z,9.10
2023-04-11T08:03:30.150Z,9.10
2023-04-11T08:05:57.652Z,9.10
2023-04-11T08:08:25.929Z,9.10
2023-04-11T08:10:53.173Z,9.20
2023-04-11T08:13:20.670Z,9.30
2023-04-11T08:15:47.940Z,9.30
2023-04-11T08:18:16.487Z,9.40
2023-04-11T08:20:43.683Z,9.40
2023-04-11T08:27:18.483Z,9.60
2023-04-11T08:29:45.964Z,9.70
2023-04-11T08:32:13.235Z,9.80
2023-04-11T08:34:40.488Z,9.90
2023-04-11T08:37:07.808Z,10.00
2023-04-11T08:39:35.443Z,10.10
2023-04-11T08:42:03.133Z,10.10
2023-04-11T08:44:30.411Z,10.20
2023-04-11T08:46:58.036Z,10.30
2023-04-11T08:49:25.284Z,10.40
2023-04-11T08:51:53.769Z,10.40
2023-04-11T08:54:21.143Z,10.50
2023-04-11T08:56:48.436Z,10.60
2023-04-11T08:59:15.858Z,10.60
2023-04-11T09:01:43.224Z,10.60
2023-04-11T09:04:11.460Z,10.60
2023-04-11T09:06:40.232Z,10.70
2023-04-11T09:09:09.672Z,10.70
2023-04-11T09:11:52.594Z,10.80
2023-04-11T09:14:24.122Z,10.90
2023-04-11T09:16:55.824Z,11.00
2023-04-11T09:19:24.142Z,11.00
2023-04-11T09:21:51.457Z,11.00
2023-04-11T09:24:18.908Z,11.20
2023-04-11T09:26:46.258Z,11.40
2023-04-11T09:29:20.736Z,11.40
2023-04-11T09:31:48.124Z,11.50
2023-04-11T09:34:23.457Z,11.30
2023-04-11T09:36:54.258Z,11.30
2023-04-11T09:39:21.847Z,11.30
2023-04-11T09:41:49.115Z,11.30
2023-04-11T09:44:16.334Z,11.30
2023-04-11T09:46:56.011Z,11.30
2023-04-11T09:49:23.775Z,11.30
2023-04-11T09:51:54.135Z,11.30
2023-04-11T09:54:22.370Z,11.30
2023-04-11T09:56:50.279Z,11.50
2023-04-11T09:59:17.823Z,11.70
2023-04-11T10:01:45.516Z,11.80
2023-04-11T10:04:13.020Z,11.90
2023-04-11T10:06:43.963Z,11.90
2023-04-11T10:09:15.063Z,11.90
2023-04-11T10:11:45.537Z,11.90
2023-04-11T10:14:32.828Z,11.90
2023-04-11T10:17:22.048Z,11.90
2023-04-11T10:19:54.345Z,11.80
2023-04-11T10:22:40.075Z,11.70
2023-04-11T10:25:16.926Z,11.80
2023-04-11T10:27:54.763Z,11.90
2023-04-11T10:30:40.075Z,11.90
2023-04-11T10:33:15.727Z,12.00
2023-04-11T10:36:10.960Z,12.00
2023-04-11T10:38:41.349Z,12.00
2023-04-11T10:41:42.222Z,12.10
2023-04-11T10:44:27.402Z,12.10
2023-04-11T10:46:55.179Z,12.20
2023-04-11T10:49:33.398Z,12.40
2023-04-11T10:52:27.237Z,12.60
2023-04-11T10:54:54.568Z,12.80
2023-04-11T10:57:22.989Z,12.80
2023-04-11T10:59:50.541Z,12.60
2023-04-11T11:02:19.417Z,12.70
2023-04-11T11:04:47.454Z,12.80
2023-04-11T11:07:18.051Z,12.60
2023-04-11T11:09:51.283Z,12.50
2023-04-11T11:12:19.055Z,12.60
2023-04-11T11:14:46.794Z,12.50
2023-04-11T11:17:14.982Z,12.50
2023-04-11T11:19:46.389Z,12.70
2023-04-11T11:22:25.998Z,12.70
2023-04-11T11:24:53.530Z,12.80
2023-04-11T11:27:20.801Z,12.70
2023-04-11T11:29:48.196Z,12.70
2023-04-11T11:32:22.680Z,12.80
2023-04-11T11:34:49.941Z,12.90
2023-04-11T11:37:17.351Z,12.70
2023-04-11T11:39:44.889Z,12.60
2023-04-11T11:42:12.232Z,12.60
2023-04-11T11:44:39.372Z,12.60
2023-04-11T11:47:06.527Z,12.60
2023-04-11T11:49:46.879Z,12.60
2023-04-11T11:52:31.783Z,12.60
2023-04-11T11:54:59.394Z,12.60
2023-04-11T12:01:34.535Z,12.70
2023-04-11T12:04:02.661Z,12.60
2023-04-11T12:06:31.897Z,12.90
2023-04-11T12:09:08.964Z,13.10
2023-04-11T12:11:40.242Z,13.40
2023-04-11T12:14:07.614Z,13.40
2023-04-11T12:16:36.967Z,13.50
2023-04-11T12:19:04.469Z,13.50
2023-04-11T12:21:31.884Z,13.50
2023-04-11T12:23:59.191Z,13.60
2023-04-11T12:26:26.457Z,13.60
2023-04-11T12:28:53.843Z,13.60
2023-04-11T12:31:21.412Z,13.30
2023-04-11T12:33:48.788Z,13.10
2023-04-11T12:36:16.181Z,12.80
2023-04-11T12:38:43.404Z,12.00
2023-04-11T12:41:31.042Z,11.50
2023-04-11T12:44:01.613Z,11.20
2023-04-11T12:46:29.020Z,11.10
2023-04-11T12:48:56.470Z,11.30
2023-04-11T12:51:23.866Z,11.50
2023-04-11T12:53:52.782Z,11.70
2023-04-11T12:56:20.663Z,11.80
2023-04-11T13:02:53.457Z,12.00
2023-04-11T13:05:22.174Z,12.10
2023-04-11T13:07:49.548Z,12.20
2023-04-11T13:10:16.853Z,12.30
2023-04-11T13:12:45.442Z,12.40
2023-04-11T13:15:14.307Z,12.40
2023-04-11T13:17:41.941Z,12.50
2023-04-11T13:20:10.455Z,12.50
2023-04-11T13:22:38.753Z,12.60
2023-04-11T13:25:06.902Z,12.70
2023-04-11T13:27:34.577Z,12.70
2023-04-11T13:30:02.269Z,12.70
2023-04-11T13:32:29.674Z,12.60
2023-04-11T13:34:56.947Z,12.60
2023-04-11T13:37:24.219Z,12.60
2023-04-11T13:39:51.470Z,12.60
2023-04-11T13:42:18.777Z,12.50
2023-04-11T13:44:46.938Z,12.50
2023-04-11T13:47:14.233Z,12.50
2023-04-11T13:49:41.490Z,12.50
2023-04-11T13:52:08.769Z,12.50
2023-04-11T13:54:37.753Z,12.40
2023-04-11T13:57:07.822Z,12.40
2023-04-11T13:59:35.856Z,12.40
2023-04-11T14:02:03.213Z,12.40
2023-04-11T14:04:31.010Z,12.40
2023-04-11T14:06:58.388Z,12.40
2023-04-11T14:09:25.805Z,12.40
2023-04-11T14:11:53.178Z,12.40
2023-04-11T14:14:20.698Z,12.30
2023-04-11T14:16:48.500Z,12.20
2023-04-11T14:19:16.879Z,12.30
2023-04-11T14:21:44.171Z,12.20
2023-04-11T14:24:11.505Z,12.20
2023-04-11T14:26:38.802Z,12.20
2023-04-11T14:29:06.622Z,12.20
2023-04-11T14:31:34.064Z,12.30
2023-04-11T14:34:01.473Z,12.20
2023-04-11T14:36:28.805Z,12.20
2023-04-11T14:38:56.153Z,12.20
2023-04-11T14:41:23.450Z,12.20
2023-04-11T14:43:50.873Z,12.20
2023-04-11T14:46:18.333Z,12.20
2023-04-11T14:48:45.796Z,12.20
2023-04-11T14:51:13.107Z,12.10
2023-04-11T14:53:40.411Z,12.00
2023-04-11T14:56:07.982Z,11.90
2023-04-11T14:58:35.258Z,11.80
2023-04-11T15:01:03.371Z,11.70
2023-04-11T15:03:31.029Z,11.80
2023-04-11T15:05:58.385Z,11.80
2023-04-11T15:08:25.609Z,11.70
2023-04-11T15:10:54.120Z,11.70
2023-04-11T15:13:22.021Z,11.60
2023-04-11T15:15:49.293Z,11.50
2023-04-11T15:18:21.191Z,11.50
2023-04-11T15:20:48.807Z,11.50
2023-04-11T15:23:16.382Z,11.40
2023-04-11T15:25:43.676Z,11.30
2023-04-11T15:28:11.269Z,11.20
2023-04-11T15:30:47.321Z,11.10
2023-04-11T15:33:16.025Z,11.10
2023-04-11T15:35:44.029Z,11.00
2023-04-11T15:38:11.788Z,10.90
2023-04-11T15:40:39.309Z,10.80
2023-04-11T15:43:06.741Z,10.70
2023-04-11T15:45:34.958Z,10.50
2023-04-11T15:48:03.269Z,10.30
2023-04-11T15:50:33.609Z,10.20
2023-04-11T15:53:01.056Z,10.20
2023-04-11T15:55:28.744Z,10.20
2023-04-11T15:57:56.531Z,10.20
2023-04-11T16:00:24.064Z,10.10
2023-04-11T16:02:52.426Z,9.80
2023-04-11T16:05:20.997Z,9.70
2023-04-11T16:07:48.493Z,9.60
2023-04-11T16:10:15.870Z,9.50
2023-04-11T16:12:43.222Z,9.40
2023-04-11T16:15:10.810Z,9.40
2023-04-11T16:17:38.213Z,9.40
2023-04-11T16:20:09.270Z,9.30
2023-04-11T16:22:39.592Z,9.30
2023-04-11T16:25:07.223Z,9.30
2023-04-11T16:27:34.522Z,9.40
2023-04-11T16:30:05.120Z,9.30
2023-04-11T16:32:32.521Z,9.30
2023-04-11T16:35:00.357Z,9.20
2023-04-11T16:37:27.773Z,9.20
2023-04-11T16:39:55.362Z,9.10
2023-04-11T16:42:22.800Z,9.00
2023-04-11T16:44:50.313Z,9.00
2023-04-11T16:47:18.110Z,9.00
2023-04-11T16:49:46.993Z,9.00
2023-04-11T16:52:15.807Z,9.00
2023-04-11T16:54:43.422Z,9.00
2023-04-11T16:57:11.529Z,8.90
2023-04-11T16:59:39.232Z,8.80
2023-04-11T17:02:06.715Z,8.90
2023-04-11T17:04:34.186Z,8.80
2023-04-11T17:07:01.628Z,8.80
2023-04-11T17:09:29.358Z,8.80
2023-04-11T17:11:57.733Z,8.80
2023-04-11T17:14:24.962Z,8.80
2023-04-11T17:16:52.229Z,8.80
2023-04-11T17:19:19.708Z,8.80
2023-04-11T17:21:46.955Z,8.80
2023-04-11T17:24:14.284Z,8.80
2023-04-11T17:26:41.538Z,8.70
2023-04-11T17:29:10.761Z,8.80
2023-04-11T17:31:38.495Z,8.80
2023-04-11T17:34:07.261Z,8.80
2023-04-11T17:36:37.380Z,8.80
2023-04-11T17:39:04.792Z,8.80
2023-04-11T17:41:32.076Z,8.80
2023-04-11T17:43:59.596Z,8.90
2023-04-11T17:46:27.118Z,8.80
2023-04-11T17:48:54.495Z,8.80
2023-04-11T17:51:21.742Z,8.80
2023-04-11T17:53:49.002Z,8.90
2023-04-11T17:56:16.333Z,8.90
2023-04-11T17:58:45.266Z,8.90
2023-04-11T18:01:12.822Z,8.90
2023-04-11T18:03:41.165Z,8.90
2023-04-11T18:06:08.797Z,8.90
2023-04-11T18:08:49.615Z,8.80
2023-04-11T18:11:17.495Z,8.80
2023-04-11T18:13:45.905Z,8.90
2023-04-11T18:16:14.393Z,8.90
2023-04-11T18:18:41.893Z,8.90
2023-04-11T18:21:09.187Z,8.90
2023-04-11T18:23:36.461Z,8.90
2023-04-11T18:26:03.709Z,8.80
2023-04-11T18:28:30.966Z,8.80
2023-04-11T18:30:58.243Z,8.80
2023-04-11T18:33:26.147Z,8.80
2023-04-11T18:35:53.565Z,8.90
2023-04-11T18:38:21.212Z,8.90
2023-04-11T18:44:38.954Z,8.90
2023-04-11T18:47:10.582Z,8.90
2023-04-11T18:49:39.429Z,8.80
2023-04-11T18:52:06.933Z,8.80
2023-04-11T18:54:35.630Z,8.80
2023-04-11T18:57:03.202Z,8.80
2023-04-11T18:59:32.524Z,8.70
2023-04-11T19:06:07.524Z,8.80
2023-04-11T19:08:34.935Z,8.80
2023-04-11T19:11:02.847Z,8.80
2023-04-11T19:13:30.307Z,8.70
2023-04-11T19:20:26.811Z,8.70
2023-04-11T19:22:54.041Z,8.70
2023-04-11T19:25:21.362Z,8.70
2023-04-11T19:27:48.995Z,8.70
2023-04-11T19:30:16.352Z,8.60
2023-04-11T19:32:45.588Z,8.60
2023-04-11T19:35:13.151Z,8.70
2023-04-11T19:37:40.941Z,8.70
2023-04-11T19:40:11.038Z,8.70
2023-04-11T19:42:39.957Z,8.70
2023-04-11T19:45:09.167Z,8.70
2023-04-11T19:47:36.546Z,8.70
2023-04-11T19:50:04.264Z,8.70
2023-04-11T19:56:40.926Z,8.80
2023-04-11T19:59:08.171Z,8.80
2023-04-11T20:01:35.615Z,8.80
2023-04-11T20:04:03.142Z,8.80
2023-04-11T20:06:34.674Z,8.80
2023-04-11T20:09:02.597Z,8.80
2023-04-11T20:11:29.901Z,8.80
2023-04-11T20:18:04.766Z,8.80
2023-04-11T20:20:33.636Z,8.90
2023-04-11T20:23:04.846Z,8.90
2023-04-11T20:25:32.336Z,8.80
2023-04-11T20:27:59.932Z,8.90
2023-04-11T20:30:28.263Z,8.90
2023-04-11T20:32:56.560Z,8.90
2023-04-11T20:35:23.979Z,8.90
2023-04-11T20:37:51.291Z,9.00
2023-04-11T20:40:18.578Z,9.00
2023-04-11T20:42:47.394Z,9.00
2023-04-11T20:45:16.230Z,9.00
2023-04-11T20:47:46.171Z,9.00
2023-04-11T20:50:14.495Z,9.10
2023-04-11T20:52:42.357Z,9.10
2023-04-11T20:55:10.666Z,9.10
2023-04-11T20:57:38.025Z,9.10
2023-04-11T21:00:16.523Z,9.20
2023-04-11T21:02:45.651Z,9.20
2023-04-11T21:05:13.743Z,9.20
2023-04-11T21:07:41.502Z,9.20
2023-04-11T21:10:09.082Z,9.20
2023-04-11T21:12:36.761Z,9.20
2023-04-11T21:15:04.373Z,9.20
2023-04-11T21:17:32.200Z,9.20
2023-04-11T21:19:59.873Z,9.20
2023-04-11T21:22:27.097Z,9.20
2023-04-11T21:24:54.375Z,9.30
2023-04-11T21:27:21.708Z,9.30
2023-04-11T21:29:48.981Z,9.30
2023-04-11T21:32:16.304Z,9.30
2023-04-11T21:34:43.693Z,9.30
2023-04-11T21:37:10.926Z,9.30
2023-04-11T21:39:38.193Z,9.30
2023-04-11T21:42:05.591Z,9.30
2023-04-11T21:44:33.107Z,9.20
2023-04-11T21:47:00.435Z,9.10
2023-04-11T21:49:27.763Z,9.10
2023-04-11T21:51:56.079Z,9.00
2023-04-11T21:54:23.296Z,9.00
2023-04-11T21:56:50.702Z,9.00
2023-04-11T21:59:17.982Z,8.90
2023-04-11T22:01:47.747Z,8.90
2023-04-11T22:04:17.616Z,8.80
2023-04-11T22:10:50.807Z,8.80
2023-04-11T22:13:19.452Z,8.70
2023-04-11T22:15:49.085Z,8.70
2023-04-11T22:18:17.312Z,8.80
2023-04-11T22:20:45.282Z,8.80
2023-04-11T22:23:13.310Z,8.90
2023-04-11T22:25:42.185Z,8.90
2023-04-11T22:28:18.314Z,9.00
2023-04-11T22:30:46.629Z,9.00
2023-04-11T22:33:14.156Z,9.00
2023-04-11T22:35:44.265Z,9.00
2023-04-11T22:38:11.957Z,9.00
2023-04-11T22:40:40.310Z,9.10
2023-04-11T22:43:07.696Z,9.10
2023-04-11T22:45:38.265Z,9.00
2023-04-11T22:48:06.220Z,9.00
2023-04-11T22:50:36.592Z,9.00
2023-04-11T22:53:03.930Z,9.00
2023-04-11T22:55:34.305Z,9.00
2023-04-11T22:58:02.870Z,9.00
2023-04-11T23:00:38.700Z,9.00
2023-04-11T23:03:07.380Z,8.90
2023-04-11T23:05:38.099Z,8.90
2023-04-11T23:08:06.720Z,8.90
2023-04-11T23:10:34.493Z,8.90
2023-04-11T23:13:02.457Z,8.90
2023-04-11T23:15:32.210Z,9.00
2023-04-11T23:17:59.850Z,8.90
2023-04-11T23:20:27.420Z,8.80
2023-04-11T23:22:55.485Z,8.90
2023-04-11T23:25:22.993Z,8.80
2023-04-11T23:27:50.764Z,8.80
2023-04-11T23:30:18.361Z,8.80
2023-04-11T23:32:46.200Z,8.70
2023-04-11T23:35:16.811Z,8.70
2023-04-11T23:37:44.790Z,8.70
2023-04-11T23:40:13.985Z,8.60
2023-04-11T23:42:42.050Z,8.60
2023-04-11T23:45:10.806Z,8.60
2023-04-11T23:47:38.200Z,8.60
2023-04-11T23:50:05.797Z,8.60
2023-04-11T23:52:33.758Z,8.70
2023-04-11T23:55:01.028Z,8.60
2023-04-11T23:57:28.369Z,8.60
2023-04-11T23:59:55.728Z,8.60
